Time;durP1;ratioP1;P1;durP2;ratioP2;P2;SDS_P1;SDS_P2;PMS_P1;PMS_P2;Temp;Humidity;BMP_temperature;BMP_pressure;BME280_temperature;BME280_humidity;BME280_pressure;Samples;Min_cycle;Max_cycle;Signal;HPM_P1;HPM_P2
2023/04/23 00:00:35;;;;;;;;;;;;;;;;;;4989103;28;19916;-48
2023/04/23 05:07:33;;;;;;;;;;;;;;;;;;4981731;28;19918;-45
2023/04/23 05:09:59;;;;;;;;;;;;;;;;;;4988155;28;19921;-45
2023/04/23 05:12:26;;;;;;;;;;;;;;;;;;4988632;28;20377;-46
2023/04/23 05:14:52;;;;;;;;;;;;;;;;;;4988019;28;19913;-48
2023/04/23 05:17:19;;;;;;;;;;;;;;;;;;4987932;28;19910;-45
2023/04/23 05:19:45;;;;;;;;;;;;;;;;;;4987848;28;20456;-45
2023/04/23 05:22:11;;;;;;;;;;;;;;;;;;4987888;28;19913;-45
2023/04/23 05:24:37;;;;;;;;;;;;;;;;;;4987787;28;19998;-47
2023/04/23 05:27:03;;;;;;;;;;;;;;;;;;4997955;28;19910;-47
2023/04/23 05:29:28;;;;;;;;;;;;;;;;;;5007404;28;20422;-46
2023/04/23 05:31:54;;;;;;;;;;;;;;;;;;5004590;28;19909;-46
2023/04/23 05:34:20;;;;;;;;;;;;;;;;;;4989224;28;20011;-46
2023/04/23 05:36:46;;;;;;;;;;;;;;;;;;4987989;28;19976;-45
2023/04/23 05:39:12;;;;;;;;;;;;;;;;;;4979744;28;19964;-46
2023/04/23 05:41:38;;;;;;;;;;;;;;;;;;4989004;28;19910;-46
2023/04/23 05:44:04;;;;;;;;;;;;;;;;;;4999657;28;19913;-44
2023/04/23 05:46:30;;;;;;;;;;;;;;;;;;5007332;28;20257;-48
2023/04/23 05:48:56;;;;;;;;;;;;;;;;;;4990143;28;19905;-44
2023/04/23 05:51:22;;;;;;;;;;;;;;;;;;4994850;28;20021;-47
2023/04/23 05:53:48;;;;;;;;;;;;;;;;;;4994743;28;19910;-44
2023/04/23 05:56:14;;;;;;;;;;;;;;;;;;4993378;28;20032;-46
2023/04/23 05:58:40;;;;;;;;;;;;;;;;;;4992043;28;19914;-45
2023/04/23 06:01:06;;;;;;;;;;;;;;;;;;5005049;28;20380;-45
2023/04/23 06:03:32;;;;;;;;;;;;;;;;;;5011298;28;20008;-48
2023/04/23 06:05:58;;;;;;;;;;;;;;;;;;5011500;28;19921;-47
2023/04/23 06:08:24;;;;;;;;;;;;;;;;;;5007997;28;19990;-47
2023/04/23 06:10:50;;;;;;;;;;;;;;;;;;4972332;28;19933;-44
2023/04/23 06:13:16;;;;;;;;;;;;;;;;;;4971856;28;19921;-46
2023/04/23 06:15:42;;;;;;;;;;;;;;;;;;4971663;28;19914;-47
2023/04/23 06:18:09;;;;;;;;;;;;;;;;;;4972056;28;20442;-45
2023/04/23 06:20:36;;;;;;;;;;;;;;;;;;4971032;28;19914;-45
2023/04/23 06:23:02;;;;;;;;;;;;;;;;;;4970595;28;19932;-45
2023/04/23 06:25:28;;;;;;;;;;;;;;;;;;4972132;28;19960;-47
2023/04/23 06:27:57;;;;;;;;;;;;;;;;;;4973149;28;19917;-47
2023/04/23 06:30:22;;;;;;;;;;;;;;;;;;4971828;28;19910;-45
2023/04/23 06:32:48;;;;;;;;;;;;;;;;;;4969325;28;20084;-47
2023/04/23 06:35:14;;;;;;;;;;;;;;;;;;4971495;28;20321;-44
2023/04/23 06:37:40;;;;;;;;;;;;;;;;;;4972958;28;19906;-44
2023/04/23 06:40:06;;;;;;;;;;;;;;;;;;4972396;28;19913;-44
2023/04/23 06:42:32;;;;;;;;;;;;;;;;;;4972706;28;19906;-43
2023/04/23 06:45:02;;;;;;;;;;;;;;;;;;4971334;28;19937;-45
2023/04/23 06:47:28;;;;;;;;;;;;;;;;;;4973178;28;19914;-45
2023/04/23 06:49:54;;;;;;;;;;;;;;;;;;4973876;28;19910;-45
2023/04/23 06:52:20;;;;;;;;;;;;;;;;;;4972257;28;19910;-47
2023/04/23 06:54:46;;;;;;;;;;;;;;;;;;4978533;28;19913;-44
2023/04/23 06:57:12;;;;;;;;;;;;;;;;;;4973502;28;19938;-48
2023/04/23 06:59:38;;;;;;;;;;;;;;;;;;4973147;28;19906;-45
2023/04/23 07:02:04;;;;;;;;;;;;;;;;;;4972988;28;19952;-45
2023/04/23 07:04:30;;;;;;;;;;;;;;;;;;4973439;28;19932;-44
2023/04/23 07:06:56;;;;;;;;;;;;;;;;;;4973167;28;20005;-46
2023/04/23 07:09:22;;;;;;;;;;;;;;;;;;4970876;28;19914;-45
2023/04/23 07:11:48;;;;;;;;;;;;;;;;;;4971181;28;19969;-47
2023/04/23 07:14:14;;;;;;;;;;;;;;;;;;4971286;28;19917;-44
2023/04/23 07:16:40;;;;;;;;;;;;;;;;;;4973286;28;19910;-45
2023/04/23 07:19:06;;;;;;;;;;;;;;;;;;4972994;28;19976;-45
2023/04/23 07:21:32;;;;;;;;;;;;;;;;;;4972950;28;20026;-45
2023/04/23 07:24:05;;;;;;;;;;;;;;;;;;4972895;28;20004;-46
2023/04/23 07:26:31;;;;;;;;;;;;;;;;;;4972905;28;19944;-47
2023/04/23 07:28:57;;;;;;;;;;;;;;;;;;4973457;28;20333;-46
2023/04/23 07:31:23;;;;;;;;;;;;;;;;;;4992490;28;19928;-45
2023/04/23 07:33:49;;;;;;;;;;;;;;;;;;4972802;28;19921;-47
2023/04/23 07:36:15;;;;;;;;;;;;;;;;;;4970725;28;20009;-45
2023/04/23 07:38:41;;;;;;;;;;;;;;;;;;4962391;28;19945;-44
2023/04/23 07:41:07;;;;;;;;;;;;;;;;;;4972610;28;19933;-45
2023/04/23 07:43:33;;;;;;;;;;;;;;;;;;4981703;28;19913;-46
2023/04/23 07:45:59;;;;;;;;;;;;;;;;;;4975312;28;19921;-44
2023/04/23 07:48:25;;;;;;;;;;;;;;;;;;4971848;28;19918;-45
2023/04/23 07:50:51;;;;;;;;;;;;;;;;;;4972673;28;20250;-44
2023/04/23 07:53:17;;;;;;;;;;;;;;;;;;4971753;28;19914;-44
2023/04/23 07:55:42;;;;;;;;;;;;;;;;;;4972035;28;19910;-45
2023/04/23 08:00:45;;;;;;;;;;;;;;;;;;5133283;23;19926;-42
2023/04/23 08:03:11;;;;;;;;;;;;;;;;;;4991412;28;19906;-42
2023/04/23 08:05:37;;;;;;;;;;;;;;;;;;4989945;28;19925;-42
2023/04/23 08:08:03;;;;;;;;;;;;;;;;;;4990287;28;20386;-42
2023/04/23 08:10:29;;;;;;;;;;;;;;;;;;4989609;28;19921;-43
2023/04/23 08:12:55;;;;;;;;;;;;;;;;;;4989311;28;19910;-42
2023/04/23 08:15:22;;;;;;;;;;;;;;;;;;4990355;28;19909;-42
2023/04/23 08:17:48;;;;;;;;;;;;;;;;;;4989632;28;19910;-43
2023/04/23 08:20:14;;;;;;;;;;;;;;;;;;4989861;28;19932;-43
2023/04/23 08:22:40;;;;;;;;;;;;;;;;;;4989569;28;19956;-43
2023/04/23 08:25:06;;;;;;;;;;;;;;;;;;4989985;28;19906;-42
2023/04/23 08:27:31;;;;;;;;;;;;;;;;;;4989752;28;20435;-42
2023/04/23 08:29:57;;;;;;;;;;;;;;;;;;4990143;28;19909;-42
2023/04/23 08:32:23;;;;;;;;;;;;;;;;;;4989823;28;20348;-42
2023/04/23 08:34:49;;;;;;;;;;;;;;;;;;4987363;28;19913;-41
2023/04/23 08:37:15;;;;;;;;;;;;;;;;;;4989670;28;19917;-44
2023/04/23 08:39:41;;;;;;;;;;;;;;;;;;4989919;28;19952;-43
2023/04/23 08:42:08;;;;;;;;;;;;;;;;;;4989071;28;19909;-41
2023/04/23 08:44:34;;;;;;;;;;;;;;;;;;4989665;28;19909;-41
2023/04/23 08:47:00;;;;;;;;;;;;;;;;;;4989418;28;20003;-42
2023/04/23 08:49:28;;;;;;;;;;;;;;;;;;4989172;28;19909;-42
2023/04/23 08:51:54;;;;;;;;;;;;;;;;;;4989690;28;19955;-42
2023/04/23 08:54:19;;;;;;;;;;;;;;;;;;4988650;28;20409;-42
2023/04/23 08:56:45;;;;;;;;;;;;;;;;;;4989653;28;20412;-42
2023/04/23 08:59:11;;;;;;;;;;;;;;;;;;4988952;28;19910;-42
2023/04/23 09:01:37;;;;;;;;;;;;;;;;;;4989527;28;19928;-42
2023/04/23 09:04:03;;;;;;;;;;;;;;;;;;4989343;28;19916;-42
2023/04/23 09:06:31;;;;;;;;;;;;;;;;;;4989559;28;20388;-43
2023/04/23 09:08:58;;;;;;;;;;;;;;;;;;4989420;28;20335;-42
2023/04/23 09:11:24;;;;;;;;;;;;;;;;;;4990032;28;20287;-42
2023/04/23 09:13:49;;;;;;;;;;;;;;;;;;4989079;28;20404;-42
2023/04/23 09:16:15;;;;;;;;;;;;;;;;;;4989230;28;19967;-41
2023/04/23 09:18:41;;;;;;;;;;;;;;;;;;4989064;28;19912;-43
2023/04/23 09:21:07;;;;;;;;;;;;;;;;;;4989164;28;19910;-42
2023/04/23 09:23:37;;;;;;;;;;;;;;;;;;4989281;28;19906;-42
2023/04/23 09:26:03;;;;;;;;;;;;;;;;;;4993181;28;19956;-42
2023/04/23 09:28:29;;;;;;;;;;;;;;;;;;4992958;28;19917;-42
2023/04/23 09:30:55;;;;;;;;;;;;;;;;;;4993128;28;19910;-42
2023/04/23 09:33:20;;;;;;;;;;;;;;;;;;4993182;28;19914;-42
2023/04/23 09:35:46;;;;;;;;;;;;;;;;;;4990980;28;20380;-42
2023/04/23 09:38:12;;;;;;;;;;;;;;;;;;4993138;28;20380;-44
2023/04/23 09:40:39;;;;;;;;;;;;;;;;;;4992831;28;19989;-42
2023/04/23 09:43:06;;;;;;;;;;;;;;;;;;4992484;28;19967;-42
2023/04/23 09:45:34;;;;;;;;;;;;;;;;;;4982482;28;20017;-42
2023/04/23 09:48:00;;;;;;;;;;;;;;;;;;4978880;28;19930;-43
2023/04/23 09:50:26;;;;;;;;;;;;;;;;;;4992773;28;19921;-42
2023/04/23 09:52:52;;;;;;;;;;;;;;;;;;4992911;28;19910;-43
2023/04/23 09:55:19;;;;;;;;;;;;;;;;;;4992328;28;19916;-43
2023/04/23 09:57:45;;;;;;;;;;;;;;;;;;4992554;28;19984;-42
2023/04/23 10:00:12;;;;;;;;;;;;;;;;;;4992251;28;19914;-41
2023/04/23 10:02:38;;;;;;;;;;;;;;;;;;4989483;28;19916;-42
2023/04/23 10:05:04;;;;;;;;;;;;;;;;;;4992689;28;19910;-44
2023/04/23 10:07:31;;;;;;;;;;;;;;;;;;4991577;28;20442;-42
2023/04/23 10:09:57;;;;;;;;;;;;;;;;;;4991986;28;19957;-43
2023/04/23 10:12:23;;;;;;;;;;;;;;;;;;4992326;28;19960;-43
2023/04/23 10:14:52;;;;;;;;;;;;;;;;;;4991524;28;19944;-43
2023/04/23 10:17:18;;;;;;;;;;;;;;;;;;4986534;28;19910;-42
2023/04/23 10:19:44;;;;;;;;;;;;;;;;;;4996564;28;19957;-42
2023/04/23 10:22:10;;;;;;;;;;;;;;;;;;5003644;28;19948;-43
2023/04/23 10:24:36;;;;;;;;;;;;;;;;;;4990755;28;19914;-42
2023/04/23 10:27:02;;;;;;;;;;;;;;;;;;4991001;28;19920;-43
2023/04/23 10:29:29;;;;;;;;;;;;;;;;;;4990261;28;19914;-42
2023/04/23 10:31:56;;;;;;;;;;;;;;;;;;4990899;28;19952;-44
2023/04/23 10:34:22;;;;;;;;;;;;;;;;;;4990976;28;19932;-43
2023/04/23 10:36:48;;;;;;;;;;;;;;;;;;4990687;28;20561;-43
2023/04/23 10:39:15;;;;;;;;;;;;;;;;;;4991993;28;19988;-44
2023/04/23 10:41:41;;;;;;;;;;;;;;;;;;4991321;28;19913;-42
2023/04/23 10:44:06;;;;;;;;;;;;;;;;;;4991920;28;20355;-43
2023/04/23 10:46:33;;;;;;;;;;;;;;;;;;4991493;28;19914;-43
2023/04/23 10:48:59;;;;;;;;;;;;;;;;;;4991380;28;19920;-43
2023/04/23 10:51:25;;;;;;;;;;;;;;;;;;4991967;28;20351;-42
2023/04/23 10:53:51;;;;;;;;;;;;;;;;;;4992015;28;19913;-42
2023/04/23 10:56:17;;;;;;;;;;;;;;;;;;4991627;28;19959;-43
2023/04/23 10:58:43;;;;;;;;;;;;;;;;;;4991320;28;19993;-43
2023/04/23 11:01:09;;;;;;;;;;;;;;;;;;4987753;28;19914;-43
2023/04/23 11:03:35;;;;;;;;;;;;;;;;;;4991263;28;19913;-43
2023/04/23 11:06:01;;;;;;;;;;;;;;;;;;4991569;28;19949;-43
2023/04/23 11:08:27;;;;;;;;;;;;;;;;;;4991683;28;19913;-44
2023/04/23 11:10:55;;;;;;;;;;;;;;;;;;4991636;28;19913;-43
2023/04/23 11:13:20;;;;;;;;;;;;;;;;;;4990003;28;19910;-44
2023/04/23 11:15:46;;;;;;;;;;;;;;;;;;4989747;28;19916;-43
2023/04/23 11:18:13;;;;;;;;;;;;;;;;;;4988603;28;19910;-43
2023/04/23 11:20:40;;;;;;;;;;;;;;;;;;4987465;28;20289;-42
2023/04/23 11:23:07;;;;;;;;;;;;;;;;;;4988340;28;20013;-42
2023/04/23 11:25:34;;;;;;;;;;;;;;;;;;4993712;28;19913;-44
2023/04/23 11:28:00;;;;;;;;;;;;;;;;;;4989484;28;19917;-43
2023/04/23 11:30:26;;;;;;;;;;;;;;;;;;4986764;28;20372;-43
2023/04/23 11:32:53;;;;;;;;;;;;;;;;;;4987700;28;19909;-43
2023/04/23 11:35:20;;;;;;;;;;;;;;;;;;4987848;28;19913;-43
2023/04/23 11:37:47;;;;;;;;;;;;;;;;;;4988238;28;20303;-43
2023/04/23 11:40:14;;;;;;;;;;;;;;;;;;4987279;28;19941;-43
2023/04/23 11:42:42;;;;;;;;;;;;;;;;;;4987376;28;19916;-43
2023/04/23 11:45:09;;;;;;;;;;;;;;;;;;4988539;28;19906;-43
2023/04/23 11:47:34;;;;;;;;;;;;;;;;;;4984014;28;20009;-44
2023/04/23 11:50:00;;;;;;;;;;;;;;;;;;4987816;28;20000;-43
2023/04/23 11:52:26;;;;;;;;;;;;;;;;;;4980854;28;20024;-44
2023/04/23 11:54:53;;;;;;;;;;;;;;;;;;4974965;28;20008;-45
2023/04/23 11:57:19;;;;;;;;;;;;;;;;;;4996358;28;19916;-44
2023/04/23 11:59:45;;;;;;;;;;;;;;;;;;4977910;28;20169;-45
2023/04/23 12:02:11;;;;;;;;;;;;;;;;;;4974737;28;20440;-44
2023/04/23 12:04:37;;;;;;;;;;;;;;;;;;4977531;28;19914;-43
2023/04/23 12:07:04;;;;;;;;;;;;;;;;;;4979367;28;19971;-46
2023/04/23 12:09:30;;;;;;;;;;;;;;;;;;4979916;28;20194;-44
2023/04/23 12:11:56;;;;;;;;;;;;;;;;;;4987596;28;20388;-43
2023/04/23 12:14:25;;;;;;;;;;;;;;;;;;4987396;28;19910;-44
2023/04/23 12:16:51;;;;;;;;;;;;;;;;;;4987740;28;19916;-44
2023/04/23 12:19:20;;;;;;;;;;;;;;;;;;4987182;28;20293;-43
2023/04/23 12:21:46;;;;;;;;;;;;;;;;;;4987429;28;19961;-43
2023/04/23 12:24:12;;;;;;;;;;;;;;;;;;4985204;28;19992;-44
2023/04/23 12:26:38;;;;;;;;;;;;;;;;;;4986201;28;19945;-43
2023/04/23 12:29:04;;;;;;;;;;;;;;;;;;4980142;28;20333;-46
2023/04/23 12:31:30;;;;;;;;;;;;;;;;;;4976730;28;19937;-43
2023/04/23 12:33:57;;;;;;;;;;;;;;;;;;4987100;28;19917;-45
2023/04/23 12:36:23;;;;;;;;;;;;;;;;;;4972194;28;20399;-45
2023/04/23 12:38:48;;;;;;;;;;;;;;;;;;4984645;28;19914;-43
2023/04/23 12:41:14;;;;;;;;;;;;;;;;;;4986841;28;19917;-45
2023/04/23 12:43:41;;;;;;;;;;;;;;;;;;4986754;28;19917;-43
2023/04/23 12:46:08;;;;;;;;;;;;;;;;;;4982639;28;19917;-45
2023/04/23 12:48:35;;;;;;;;;;;;;;;;;;4986403;28;20496;-44
2023/04/23 12:51:03;;;;;;;;;;;;;;;;;;4985513;28;19910;-46
2023/04/23 12:53:29;;;;;;;;;;;;;;;;;;4987240;28;19909;-46
2023/04/23 12:55:55;;;;;;;;;;;;;;;;;;4987083;28;19921;-43
2023/04/23 12:58:21;;;;;;;;;;;;;;;;;;4986622;28;19909;-43
2023/04/23 13:00:47;;;;;;;;;;;;;;;;;;4985737;28;20019;-44
2023/04/23 13:03:14;;;;;;;;;;;;;;;;;;4986070;28;19906;-43
2023/04/23 13:05:40;;;;;;;;;;;;;;;;;;4987143;28;19921;-45
2023/04/23 13:08:06;;;;;;;;;;;;;;;;;;4987089;28;19921;-43
2023/04/23 13:10:33;;;;;;;;;;;;;;;;;;4986122;28;19914;-42
2023/04/23 13:13:00;;;;;;;;;;;;;;;;;;4986437;28;19920;-44
2023/04/23 13:15:25;;;;;;;;;;;;;;;;;;4985203;28;19913;-43
2023/04/23 13:17:51;;;;;;;;;;;;;;;;;;4986916;28;19917;-43
2023/04/23 13:20:17;;;;;;;;;;;;;;;;;;4985958;28;20426;-44
2023/04/23 13:22:43;;;;;;;;;;;;;;;;;;4985726;28;20009;-45
2023/04/23 13:25:09;;;;;;;;;;;;;;;;;;4985680;28;20007;-44
2023/04/23 13:27:35;;;;;;;;;;;;;;;;;;4985433;28;19917;-45
2023/04/23 13:30:02;;;;;;;;;;;;;;;;;;4987279;28;20607;-45
2023/04/23 13:32:30;;;;;;;;;;;;;;;;;;4986733;28;19965;-46
2023/04/23 13:34:59;;;;;;;;;;;;;;;;;;4984318;28;19917;-45
2023/04/23 13:37:26;;;;;;;;;;;;;;;;;;4986647;28;20307;-44
2023/04/23 13:39:52;;;;;;;;;;;;;;;;;;4986385;28;19909;-44
2023/04/23 13:42:17;;;;;;;;;;;;;;;;;;4985657;28;20289;-44
2023/04/23 13:44:43;;;;;;;;;;;;;;;;;;4984372;28;20007;-44
2023/04/23 13:47:09;;;;;;;;;;;;;;;;;;4986056;28;20299;-44
2023/04/23 13:49:35;;;;;;;;;;;;;;;;;;4984836;28;19917;-44
2023/04/23 13:52:05;;;;;;;;;;;;;;;;;;4984968;28;20272;-45
2023/04/23 13:54:31;;;;;;;;;;;;;;;;;;4985870;28;20273;-45
2023/04/23 13:56:56;;;;;;;;;;;;;;;;;;4986375;28;19968;-45
2023/04/23 13:59:22;;;;;;;;;;;;;;;;;;4985724;28;19917;-44
2023/04/23 14:01:49;;;;;;;;;;;;;;;;;;4983203;28;19949;-44
2023/04/23 14:04:15;;;;;;;;;;;;;;;;;;4986259;28;19913;-45
2023/04/23 14:06:41;;;;;;;;;;;;;;;;;;4984182;28;19924;-43
2023/04/23 14:09:07;;;;;;;;;;;;;;;;;;4985922;28;20111;-44
2023/04/23 14:11:33;;;;;;;;;;;;;;;;;;4988405;28;20132;-43
2023/04/23 14:14:00;;;;;;;;;;;;;;;;;;4989586;28;19914;-41
2023/04/23 14:16:27;;;;;;;;;;;;;;;;;;4987710;28;20403;-43
2023/04/23 14:18:53;;;;;;;;;;;;;;;;;;4989873;28;19936;-43
2023/04/23 14:21:19;;;;;;;;;;;;;;;;;;4991985;28;19913;-42
2023/04/23 14:23:45;;;;;;;;;;;;;;;;;;4995376;28;19914;-43
2023/04/23 14:26:11;;;;;;;;;;;;;;;;;;5002079;28;19913;-42
2023/04/23 14:28:37;;;;;;;;;;;;;;;;;;4989799;28;20428;-42
2023/04/23 14:31:02;;;;;;;;;;;;;;;;;;4989447;28;19920;-42
2023/04/23 14:33:28;;;;;;;;;;;;;;;;;;4989769;28;20404;-42
2023/04/23 14:35:54;;;;;;;;;;;;;;;;;;4989752;28;19909;-42
2023/04/23 14:38:21;;;;;;;;;;;;;;;;;;4989458;28;19952;-42
2023/04/23 14:40:48;;;;;;;;;;;;;;;;;;4989489;28;20343;-42
2023/04/23 14:43:14;;;;;;;;;;;;;;;;;;4989308;28;19930;-42
2023/04/23 14:45:40;;;;;;;;;;;;;;;;;;4971092;28;19913;-42
2023/04/23 14:48:07;;;;;;;;;;;;;;;;;;4977863;28;19920;-42
2023/04/23 14:50:33;;;;;;;;;;;;;;;;;;4983050;28;19913;-43
2023/04/23 14:53:00;;;;;;;;;;;;;;;;;;4989357;28;19913;-43
2023/04/23 14:55:26;;;;;;;;;;;;;;;;;;4987004;28;20304;-42
2023/04/23 14:57:52;;;;;;;;;;;;;;;;;;4988196;28;20277;-43
2023/04/23 15:00:18;;;;;;;;;;;;;;;;;;4987375;28;19924;-43
2023/04/23 15:02:44;;;;;;;;;;;;;;;;;;4988655;28;19913;-43
2023/04/23 15:05:10;;;;;;;;;;;;;;;;;;4980923;28;19909;-42
2023/04/23 15:07:36;;;;;;;;;;;;;;;;;;4989019;28;20328;-43
2023/04/23 15:10:05;;;;;;;;;;;;;;;;;;4995610;28;19931;-43
2023/04/23 15:12:31;;;;;;;;;;;;;;;;;;4996065;28;19952;-43
2023/04/23 15:14:57;;;;;;;;;;;;;;;;;;4995994;28;19991;-43
2023/04/23 15:17:23;;;;;;;;;;;;;;;;;;4988207;28;19906;-42
2023/04/23 15:19:49;;;;;;;;;;;;;;;;;;4987584;28;19987;-42
2023/04/23 15:22:15;;;;;;;;;;;;;;;;;;4986825;28;19913;-42
2023/04/23 15:24:42;;;;;;;;;;;;;;;;;;4987188;28;19909;-42
2023/04/23 15:27:13;;;;;;;;;;;;;;;;;;4986053;28;20406;-42
2023/04/23 15:29:40;;;;;;;;;;;;;;;;;;4985685;28;19922;-42
2023/04/23 15:32:06;;;;;;;;;;;;;;;;;;4985737;28;20290;-42
2023/04/23 15:34:31;;;;;;;;;;;;;;;;;;4986080;28;20147;-42
2023/04/23 15:36:57;;;;;;;;;;;;;;;;;;4986434;28;20376;-42
2023/04/23 15:39:23;;;;;;;;;;;;;;;;;;4984876;28;19914;-42
2023/04/23 15:41:49;;;;;;;;;;;;;;;;;;4987144;28;19957;-42
2023/04/23 15:44:17;;;;;;;;;;;;;;;;;;4987635;28;20008;-43
2023/04/23 15:46:42;;;;;;;;;;;;;;;;;;4985921;28;19960;-42
2023/04/23 15:49:09;;;;;;;;;;;;;;;;;;4986667;28;19917;-44
2023/04/23 15:51:35;;;;;;;;;;;;;;;;;;4985674;28;19910;-42
2023/04/23 15:54:04;;;;;;;;;;;;;;;;;;4986348;28;19909;-42
2023/04/23 15:56:30;;;;;;;;;;;;;;;;;;4986573;28;19905;-43
2023/04/23 15:58:56;;;;;;;;;;;;;;;;;;4980233;28;19918;-42
2023/04/23 16:01:23;;;;;;;;;;;;;;;;;;4985330;28;19914;-42
2023/04/23 16:03:49;;;;;;;;;;;;;;;;;;4987030;28;19913;-42
2023/04/23 16:06:15;;;;;;;;;;;;;;;;;;4986490;28;19921;-42
2023/04/23 16:08:41;;;;;;;;;;;;;;;;;;4984862;28;19929;-42
2023/04/23 16:11:07;;;;;;;;;;;;;;;;;;4984301;28;19916;-43
2023/04/23 16:13:33;;;;;;;;;;;;;;;;;;4986267;28;20005;-42
2023/04/23 16:15:59;;;;;;;;;;;;;;;;;;4985882;28;20459;-42
2023/04/23 16:18:25;;;;;;;;;;;;;;;;;;4985696;28;19909;-42
2023/04/23 16:20:51;;;;;;;;;;;;;;;;;;4985956;28;20001;-43
2023/04/23 16:23:18;;;;;;;;;;;;;;;;;;4985861;28;20395;-43
2023/04/23 16:25:44;;;;;;;;;;;;;;;;;;4985800;28;20396;-43
2023/04/23 16:28:12;;;;;;;;;;;;;;;;;;4985142;28;19910;-43
2023/04/23 16:30:38;;;;;;;;;;;;;;;;;;4985582;28;19916;-42
2023/04/23 16:33:05;;;;;;;;;;;;;;;;;;4984441;28;19909;-42
2023/04/23 16:35:32;;;;;;;;;;;;;;;;;;4980631;28;20324;-43
2023/04/23 16:37:59;;;;;;;;;;;;;;;;;;4985853;28;19949;-42
2023/04/23 16:40:26;;;;;;;;;;;;;;;;;;4985435;28;19932;-42
2023/04/23 16:42:52;;;;;;;;;;;;;;;;;;4984079;28;19909;-42
2023/04/23 16:45:21;;;;;;;;;;;;;;;;;;4986106;28;20287;-44
2023/04/23 16:47:47;;;;;;;;;;;;;;;;;;4984099;28;20344;-42
2023/04/23 16:50:13;;;;;;;;;;;;;;;;;;4984907;28;19914;-42
2023/04/23 16:52:39;;;;;;;;;;;;;;;;;;4979165;28;20022;-42
2023/04/23 16:55:06;;;;;;;;;;;;;;;;;;4973689;28;19914;-42
2023/04/23 16:57:34;;;;;;;;;;;;;;;;;;4966638;28;20348;-42
2023/04/23 17:00:00;;;;;;;;;;;;;;;;;;4966239;28;19988;-42
2023/04/23 17:02:27;;;;;;;;;;;;;;;;;;4974860;28;19913;-42
2023/04/23 17:04:54;;;;;;;;;;;;;;;;;;4982628;28;19921;-42
2023/04/23 17:07:20;;;;;;;;;;;;;;;;;;4979004;28;19918;-42
2023/04/23 17:09:47;;;;;;;;;;;;;;;;;;4984904;28;19917;-42
2023/04/23 17:12:14;;;;;;;;;;;;;;;;;;4984914;28;19910;-43
2023/04/23 17:14:40;;;;;;;;;;;;;;;;;;4985615;28;20388;-42
2023/04/23 17:17:05;;;;;;;;;;;;;;;;;;4985022;28;19916;-42
2023/04/23 17:19:32;;;;;;;;;;;;;;;;;;4983216;28;20307;-43
2023/04/23 17:21:58;;;;;;;;;;;;;;;;;;4983178;28;19910;-43
2023/04/23 17:24:24;;;;;;;;;;;;;;;;;;4982455;28;19941;-42
2023/04/23 17:26:51;;;;;;;;;;;;;;;;;;4984987;28;20388;-41
2023/04/23 17:29:17;;;;;;;;;;;;;;;;;;4998909;28;19913;-42
2023/04/23 17:31:43;;;;;;;;;;;;;;;;;;4985268;28;19910;-41
2023/04/23 17:34:09;;;;;;;;;;;;;;;;;;4984105;28;19941;-42
2023/04/23 17:36:35;;;;;;;;;;;;;;;;;;4983695;28;19913;-42
2023/04/23 17:39:01;;;;;;;;;;;;;;;;;;4982576;28;19936;-43
2023/04/23 17:41:27;;;;;;;;;;;;;;;;;;4984004;28;20392;-42
2023/04/23 17:43:53;;;;;;;;;;;;;;;;;;4984266;28;19910;-42
2023/04/23 17:46:19;;;;;;;;;;;;;;;;;;4984839;28;19980;-42
2023/04/23 17:48:45;;;;;;;;;;;;;;;;;;4986838;28;20336;-42
2023/04/23 17:51:11;;;;;;;;;;;;;;;;;;4989043;28;19912;-42
2023/04/23 17:53:37;;;;;;;;;;;;;;;;;;4988809;28;19909;-41
2023/04/23 17:56:03;;;;;;;;;;;;;;;;;;4987776;28;19993;-43
2023/04/23 17:58:30;;;;;;;;;;;;;;;;;;4988344;28;20008;-42
2023/04/23 18:00:57;;;;;;;;;;;;;;;;;;4987400;28;20013;-42
2023/04/23 18:03:23;;;;;;;;;;;;;;;;;;4987861;28;19910;-43
2023/04/23 18:05:49;;;;;;;;;;;;;;;;;;4979542;28;19917;-44
2023/04/23 18:08:16;;;;;;;;;;;;;;;;;;4990947;28;19914;-42
2023/04/23 18:10:42;;;;;;;;;;;;;;;;;;4976091;28;20308;-42
2023/04/23 18:13:10;;;;;;;;;;;;;;;;;;4973163;28;19917;-42
2023/04/23 18:15:36;;;;;;;;;;;;;;;;;;4977109;28;20034;-42
2023/04/23 18:18:02;;;;;;;;;;;;;;;;;;4977362;28;20548;-42
2023/04/23 18:20:29;;;;;;;;;;;;;;;;;;4976009;28;19917;-42
2023/04/23 18:22:55;;;;;;;;;;;;;;;;;;4974592;28;20482;-43
2023/04/23 18:25:23;;;;;;;;;;;;;;;;;;4977526;28;19910;-42
2023/04/23 18:27:49;;;;;;;;;;;;;;;;;;4997319;28;20016;-42
2023/04/23 18:30:16;;;;;;;;;;;;;;;;;;4999740;28;19997;-42
2023/04/23 18:32:43;;;;;;;;;;;;;;;;;;4986107;28;20602;-42
2023/04/23 18:35:09;;;;;;;;;;;;;;;;;;4986842;28;19910;-42
2023/04/23 18:37:35;;;;;;;;;;;;;;;;;;4988240;28;19917;-41
2023/04/23 18:40:01;;;;;;;;;;;;;;;;;;4983795;28;19964;-41
2023/04/23 18:42:27;;;;;;;;;;;;;;;;;;4988699;28;19913;-42
2023/04/23 18:44:54;;;;;;;;;;;;;;;;;;4981940;28;20339;-41
2023/04/23 18:47:19;;;;;;;;;;;;;;;;;;4974075;28;19921;-41
2023/04/23 18:49:45;;;;;;;;;;;;;;;;;;4986961;28;19913;-42
2023/04/23 18:52:11;;;;;;;;;;;;;;;;;;4988569;28;20067;-42
2023/04/23 18:54:38;;;;;;;;;;;;;;;;;;4985303;28;19967;-41
2023/04/23 18:57:04;;;;;;;;;;;;;;;;;;4986188;28;20313;-42
2023/04/23 18:59:34;;;;;;;;;;;;;;;;;;4986441;28;20411;-42
2023/04/23 19:02:01;;;;;;;;;;;;;;;;;;4989356;28;19913;-42
2023/04/23 19:04:28;;;;;;;;;;;;;;;;;;4988693;28;20008;-42
2023/04/23 19:06:54;;;;;;;;;;;;;;;;;;4977821;28;19942;-42
2023/04/23 19:09:20;;;;;;;;;;;;;;;;;;4997531;28;19909;-43
2023/04/23 19:11:47;;;;;;;;;;;;;;;;;;4989330;28;19928;-42
2023/04/23 19:14:14;;;;;;;;;;;;;;;;;;4988202;28;19910;-42
2023/04/23 19:16:40;;;;;;;;;;;;;;;;;;4988483;28;19914;-42
2023/04/23 19:19:06;;;;;;;;;;;;;;;;;;5002516;28;20020;-42
2023/04/23 19:21:32;;;;;;;;;;;;;;;;;;4996297;28;19914;-43
2023/04/23 19:23:58;;;;;;;;;;;;;;;;;;4986396;28;19917;-43
2023/04/23 19:26:24;;;;;;;;;;;;;;;;;;4986919;28;19913;-42
2023/04/23 19:28:50;;;;;;;;;;;;;;;;;;4985301;28;19920;-43
2023/04/23 19:31:17;;;;;;;;;;;;;;;;;;4986166;28;20347;-42
2023/04/23 19:33:45;;;;;;;;;;;;;;;;;;4986781;28;19914;-41
2023/04/23 19:36:11;;;;;;;;;;;;;;;;;;4986501;28;19940;-42
2023/04/23 19:38:37;;;;;;;;;;;;;;;;;;4985628;28;19918;-41
2023/04/23 19:41:03;;;;;;;;;;;;;;;;;;4986448;28;20384;-42
2023/04/23 19:43:29;;;;;;;;;;;;;;;;;;4985515;28;19964;-42
2023/04/23 19:45:55;;;;;;;;;;;;;;;;;;4986827;28;19957;-42
2023/04/23 19:48:21;;;;;;;;;;;;;;;;;;4984987;28;19909;-42
2023/04/23 19:50:47;;;;;;;;;;;;;;;;;;4985727;28;19914;-42
2023/04/23 19:53:13;;;;;;;;;;;;;;;;;;4986327;28;20380;-41
2023/04/23 19:55:39;;;;;;;;;;;;;;;;;;4986791;28;19940;-43
2023/04/23 19:58:05;;;;;;;;;;;;;;;;;;4986248;28;20384;-42
2023/04/23 20:00:32;;;;;;;;;;;;;;;;;;4984715;28;19926;-42
2023/04/23 20:02:58;;;;;;;;;;;;;;;;;;4986403;28;19909;-42
2023/04/23 20:05:24;;;;;;;;;;;;;;;;;;4985701;28;20277;-43
2023/04/23 20:07:50;;;;;;;;;;;;;;;;;;4984921;28;20347;-42
2023/04/23 20:10:16;;;;;;;;;;;;;;;;;;4985247;28;19910;-43
2023/04/23 20:12:42;;;;;;;;;;;;;;;;;;4986848;28;19906;-43
2023/04/23 20:15:08;;;;;;;;;;;;;;;;;;4986183;28;20523;-42
2023/04/23 20:17:35;;;;;;;;;;;;;;;;;;4986140;28;19925;-42
2023/04/23 20:20:02;;;;;;;;;;;;;;;;;;4985989;28;19910;-42
2023/04/23 20:22:28;;;;;;;;;;;;;;;;;;4985769;28;19917;-43
2023/04/23 20:24:53;;;;;;;;;;;;;;;;;;4986284;28;19906;-42
2023/04/23 20:27:20;;;;;;;;;;;;;;;;;;4984339;28;19964;-42
2023/04/23 20:29:47;;;;;;;;;;;;;;;;;;4966713;28;20301;-42
2023/04/23 20:32:14;;;;;;;;;;;;;;;;;;4967228;28;19960;-42
2023/04/23 20:34:40;;;;;;;;;;;;;;;;;;4967204;28;19953;-42
2023/04/23 20:37:07;;;;;;;;;;;;;;;;;;4984208;28;20351;-41
2023/04/23 20:39:34;;;;;;;;;;;;;;;;;;4984406;28;19906;-42
2023/04/23 20:42:00;;;;;;;;;;;;;;;;;;4986082;28;19909;-42
2023/04/23 20:44:27;;;;;;;;;;;;;;;;;;4983322;28;20107;-42
2023/04/23 20:46:56;;;;;;;;;;;;;;;;;;4986349;28;19960;-42
2023/04/23 20:49:24;;;;;;;;;;;;;;;;;;4985278;28;19910;-42
2023/04/23 20:51:50;;;;;;;;;;;;;;;;;;4985234;28;20368;-42
2023/04/23 20:54:15;;;;;;;;;;;;;;;;;;4983940;28;19993;-42
2023/04/23 20:56:42;;;;;;;;;;;;;;;;;;4986336;28;20004;-43
2023/04/23 20:59:08;;;;;;;;;;;;;;;;;;4983952;28;20016;-42
2023/04/23 21:01:35;;;;;;;;;;;;;;;;;;4985663;28;20448;-42
2023/04/23 21:04:01;;;;;;;;;;;;;;;;;;4985769;28;19914;-41
2023/04/23 21:06:29;;;;;;;;;;;;;;;;;;4984725;28;19921;-42
2023/04/23 21:08:55;;;;;;;;;;;;;;;;;;4985626;28;19909;-41
2023/04/23 21:11:23;;;;;;;;;;;;;;;;;;4985230;28;20266;-41
2023/04/23 21:13:49;;;;;;;;;;;;;;;;;;4985696;28;19945;-41
2023/04/23 21:16:16;;;;;;;;;;;;;;;;;;4985352;28;19944;-41
2023/04/23 21:18:45;;;;;;;;;;;;;;;;;;4984743;28;19902;-41
2023/04/23 21:21:11;;;;;;;;;;;;;;;;;;4988109;28;19909;-41
2023/04/23 21:23:37;;;;;;;;;;;;;;;;;;4989467;28;20284;-42
2023/04/23 21:26:04;;;;;;;;;;;;;;;;;;4989255;28;20347;-42
2023/04/23 21:28:31;;;;;;;;;;;;;;;;;;4989291;28;19989;-41
2023/04/23 21:30:58;;;;;;;;;;;;;;;;;;4986739;28;19949;-42
2023/04/23 21:33:24;;;;;;;;;;;;;;;;;;4981081;28;20350;-41
2023/04/23 21:35:50;;;;;;;;;;;;;;;;;;4969343;28;19913;-42
2023/04/23 21:38:16;;;;;;;;;;;;;;;;;;4969690;28;19954;-41
2023/04/23 21:40:42;;;;;;;;;;;;;;;;;;4970480;28;20393;-42
2023/04/23 21:43:10;;;;;;;;;;;;;;;;;;4968083;28;20348;-42
2023/04/23 21:45:37;;;;;;;;;;;;;;;;;;4986929;28;20047;-42